sensor_id;sensor_type;location;lat;lon;timestamp;P1;durP1;ratioP1;P2;durP2;ratioP2
12120;SDS011;6124;59.460;17.908;2023-07-29T00:01:56;2.80;;;2.47;;
12120;SDS011;6124;59.460;17.908;2023-07-29T00:04:24;3.57;;;2.50;;
12120;SDS011;6124;59.460;17.908;2023-07-29T00:06:51;2.80;;;2.50;;
12120;SDS011;6124;59.460;17.908;2023-07-29T00:09:18;2.50;;;2.30;;
12120;SDS011;6124;59.460;17.908;2023-07-29T00:11:46;2.73;;;2.37;;
12120;SDS011;6124;59.460;17.908;2023-07-29T00:14:13;2.47;;;2.27;;
12120;SDS011;6124;59.460;17.908;2023-07-29T00:16:42;3.40;;;2.30;;
12120;SDS011;6124;59.460;17.908;2023-07-29T00:19:09;2.43;;;2.13;;
12120;SDS011;6124;59.460;17.908;2023-07-29T00:21:36;2.97;;;2.27;;
12120;SDS011;6124;59.460;17.908;2023-07-29T00:24:04;2.80;;;2.33;;
12120;SDS011;6124;59.460;17.908;2023-07-29T00:26:31;3.57;;;2.70;;
12120;SDS011;6124;59.460;17.908;2023-07-29T00:28:58;3.10;;;2.37;;
12120;SDS011;6124;59.460;17.908;2023-07-29T00:31:25;3.30;;;2.50;;
12120;SDS011;6124;59.460;17.908;2023-07-29T00:33:54;4.80;;;2.70;;
12120;SDS011;6124;59.460;17.908;2023-07-29T00:36:23;2.73;;;2.50;;
12120;SDS011;6124;59.460;17.908;2023-07-29T00:38:50;2.77;;;2.30;;
12120;SDS011;6124;59.460;17.908;2023-07-29T00:41:19;2.77;;;2.50;;
12120;SDS011;6124;59.460;17.908;2023-07-29T00:43:48;2.57;;;2.37;;
12120;SDS011;6124;59.460;17.908;2023-07-29T00:46:15;2.63;;;2.40;;
12120;SDS011;6124;59.460;17.908;2023-07-29T00:48:44;3.90;;;2.60;;
12120;SDS011;6124;59.460;17.908;2023-07-29T00:51:13;4.50;;;2.90;;
12120;SDS011;6124;59.460;17.908;2023-07-29T00:53:40;3.30;;;2.57;;
12120;SDS011;6124;59.460;17.908;2023-07-29T00:56:07;4.27;;;2.77;;
12120;SDS011;6124;59.460;17.908;2023-07-29T00:58:35;3.10;;;2.80;;
12120;SDS011;6124;59.460;17.908;2023-07-29T01:01:02;3.10;;;2.47;;
12120;SDS011;6124;59.460;17.908;2023-07-29T01:03:29;4.07;;;2.90;;
12120;SDS011;6124;59.460;17.908;2023-07-29T01:06:10;3.33;;;2.83;;
12120;SDS011;6124;59.460;17.908;2023-07-29T01:08:45;3.27;;;2.40;;
12120;SDS011;6124;59.460;17.908;2023-07-29T01:11:17;4.20;;;2.57;;
12120;SDS011;6124;59.460;17.908;2023-07-29T01:13:48;3.27;;;2.67;;
12120;SDS011;6124;59.460;17.908;2023-07-29T01:16:19;4.50;;;2.63;;
12120;SDS011;6124;59.460;17.908;2023-07-29T01:18:47;4.20;;;3.03;;
12120;SDS011;6124;59.460;17.908;2023-07-29T01:21:16;3.90;;;2.90;;
12120;SDS011;6124;59.460;17.908;2023-07-29T01:23:45;3.17;;;2.70;;
12120;SDS011;6124;59.460;17.908;2023-07-29T01:26:13;2.50;;;2.30;;
12120;SDS011;6124;59.460;17.908;2023-07-29T01:28:40;4.20;;;2.67;;
12120;SDS011;6124;59.460;17.908;2023-07-29T01:31:20;3.13;;;2.83;;
12120;SDS011;6124;59.460;17.908;2023-07-29T01:33:52;3.10;;;2.60;;
12120;SDS011;6124;59.460;17.908;2023-07-29T01:36:23;3.50;;;2.50;;
12120;SDS011;6124;59.460;17.908;2023-07-29T01:38:54;2.83;;;2.20;;
12120;SDS011;6124;59.460;17.908;2023-07-29T01:41:21;3.80;;;2.50;;
12120;SDS011;6124;59.460;17.908;2023-07-29T01:43:49;3.13;;;2.10;;
12120;SDS011;6124;59.460;17.908;2023-07-29T01:46:17;3.30;;;2.30;;
12120;SDS011;6124;59.460;17.908;2023-07-29T01:48:44;2.57;;;2.37;;
12120;SDS011;6124;59.460;17.908;2023-07-29T01:51:11;3.90;;;2.77;;
12120;SDS011;6124;59.460;17.908;2023-07-29T01:53:39;3.53;;;2.80;;
12120;SDS011;6124;59.460;17.908;2023-07-29T01:56:08;4.77;;;2.50;;
12120;SDS011;6124;59.460;17.908;2023-07-29T01:58:35;4.20;;;2.90;;
12120;SDS011;6124;59.460;17.908;2023-07-29T02:01:03;4.80;;;2.50;;
12120;SDS011;6124;59.460;17.908;2023-07-29T02:03:30;2.70;;;2.30;;
12120;SDS011;6124;59.460;17.908;2023-07-29T02:05:57;2.60;;;2.40;;
12120;SDS011;6124;59.460;17.908;2023-07-29T02:08:24;3.27;;;2.30;;
12120;SDS011;6124;59.460;17.908;2023-07-29T02:10:52;2.90;;;2.47;;
12120;SDS011;6124;59.460;17.908;2023-07-29T02:13:20;3.70;;;2.60;;
12120;SDS011;6124;59.460;17.908;2023-07-29T02:15:48;2.30;;;2.10;;
12120;SDS011;6124;59.460;17.908;2023-07-29T02:18:15;2.40;;;2.20;;
12120;SDS011;6124;59.460;17.908;2023-07-29T02:20:42;3.80;;;2.30;;
12120;SDS011;6124;59.460;17.908;2023-07-29T02:23:14;2.47;;;2.27;;
12120;SDS011;6124;59.460;17.908;2023-07-29T02:25:42;2.50;;;2.30;;
12120;SDS011;6124;59.460;17.908;2023-07-29T02:28:09;2.40;;;2.20;;
12120;SDS011;6124;59.460;17.908;2023-07-29T02:30:40;2.37;;;2.17;;
12120;SDS011;6124;59.460;17.908;2023-07-29T02:33:09;2.57;;;2.37;;
12120;SDS011;6124;59.460;17.908;2023-07-29T02:35:36;3.33;;;2.70;;
12120;SDS011;6124;59.460;17.908;2023-07-29T02:38:04;2.80;;;2.60;;
12120;SDS011;6124;59.460;17.908;2023-07-29T02:40:31;3.97;;;2.60;;
12120;SDS011;6124;59.460;17.908;2023-07-29T02:42:58;3.07;;;2.33;;
12120;SDS011;6124;59.460;17.908;2023-07-29T02:45:25;3.20;;;2.80;;
12120;SDS011;6124;59.460;17.908;2023-07-29T02:47:54;3.87;;;2.50;;
12120;SDS011;6124;59.460;17.908;2023-07-29T02:50:21;2.60;;;2.40;;
12120;SDS011;6124;59.460;17.908;2023-07-29T02:52:49;3.27;;;2.47;;
12120;SDS011;6124;59.460;17.908;2023-07-29T02:55:17;2.53;;;2.33;;
12120;SDS011;6124;59.460;17.908;2023-07-29T02:57:44;2.80;;;2.60;;
12120;SDS011;6124;59.460;17.908;2023-07-29T03:00:12;2.80;;;2.60;;
12120;SDS011;6124;59.460;17.908;2023-07-29T03:02:40;2.87;;;2.43;;
12120;SDS011;6124;59.460;17.908;2023-07-29T03:05:09;2.40;;;2.20;;
12120;SDS011;6124;59.460;17.908;2023-07-29T03:07:36;2.40;;;2.13;;
12120;SDS011;6124;59.460;17.908;2023-07-29T03:10:04;2.97;;;2.40;;
12120;SDS011;6124;59.460;17.908;2023-07-29T03:12:31;3.33;;;2.63;;
12120;SDS011;6124;59.460;17.908;2023-07-29T03:14:59;3.37;;;2.63;;
12120;SDS011;6124;59.460;17.908;2023-07-29T03:17:27;2.73;;;2.43;;
12120;SDS011;6124;59.460;17.908;2023-07-29T03:19:54;3.37;;;2.70;;
12120;SDS011;6124;59.460;17.908;2023-07-29T03:22:23;2.73;;;2.53;;
12120;SDS011;6124;59.460;17.908;2023-07-29T03:24:50;2.60;;;2.33;;
12120;SDS011;6124;59.460;17.908;2023-07-29T03:27:17;3.57;;;2.30;;
12120;SDS011;6124;59.460;17.908;2023-07-29T03:29:45;2.43;;;2.10;;
12120;SDS011;6124;59.460;17.908;2023-07-29T03:32:13;3.40;;;2.40;;
12120;SDS011;6124;59.460;17.908;2023-07-29T03:34:40;2.27;;;2.07;;
12120;SDS011;6124;59.460;17.908;2023-07-29T03:37:07;2.33;;;2.13;;
12120;SDS011;6124;59.460;17.908;2023-07-29T03:39:36;2.50;;;2.30;;
12120;SDS011;6124;59.460;17.908;2023-07-29T03:42:04;4.90;;;2.80;;
12120;SDS011;6124;59.460;17.908;2023-07-29T03:44:31;2.50;;;2.30;;
12120;SDS011;6124;59.460;17.908;2023-07-29T03:47:00;2.57;;;2.37;;
12120;SDS011;6124;59.460;17.908;2023-07-29T03:49:27;3.10;;;2.60;;
12120;SDS011;6124;59.460;17.908;2023-07-29T03:51:55;4.17;;;2.37;;
12120;SDS011;6124;59.460;17.908;2023-07-29T03:54:22;2.50;;;2.30;;
12120;SDS011;6124;59.460;17.908;2023-07-29T03:56:51;2.50;;;2.30;;
12120;SDS011;6124;59.460;17.908;2023-07-29T03:59:18;3.73;;;2.10;;
12120;SDS011;6124;59.460;17.908;2023-07-29T04:01:47;3.60;;;2.77;;
12120;SDS011;6124;59.460;17.908;2023-07-29T04:04:15;4.37;;;2.57;;
12120;SDS011;6124;59.460;17.908;2023-07-29T04:06:42;3.33;;;2.77;;
12120;SDS011;6124;59.460;17.908;2023-07-29T04:09:09;3.23;;;2.67;;
12120;SDS011;6124;59.460;17.908;2023-07-29T04:11:37;3.63;;;2.57;;
12120;SDS011;6124;59.460;17.908;2023-07-29T04:14:05;4.13;;;2.47;;
12120;SDS011;6124;59.460;17.908;2023-07-29T04:16:33;3.23;;;2.53;;
12120;SDS011;6124;59.460;17.908;2023-07-29T04:19:00;2.77;;;2.50;;
12120;SDS011;6124;59.460;17.908;2023-07-29T04:21:27;2.57;;;2.20;;
12120;SDS011;6124;59.460;17.908;2023-07-29T04:23:54;3.27;;;2.30;;
12120;SDS011;6124;59.460;17.908;2023-07-29T04:26:22;3.07;;;2.30;;
12120;SDS011;6124;59.460;17.908;2023-07-29T04:28:49;2.90;;;2.30;;
12120;SDS011;6124;59.460;17.908;2023-07-29T04:31:18;2.93;;;2.13;;
12120;SDS011;6124;59.460;17.908;2023-07-29T04:33:45;2.43;;;2.23;;
12120;SDS011;6124;59.460;17.908;2023-07-29T04:36:12;3.97;;;2.40;;
12120;SDS011;6124;59.460;17.908;2023-07-29T04:38:39;4.17;;;2.10;;
12120;SDS011;6124;59.460;17.908;2023-07-29T04:41:07;2.33;;;2.13;;
12120;SDS011;6124;59.460;17.908;2023-07-29T04:43:34;2.57;;;1.90;;
12120;SDS011;6124;59.460;17.908;2023-07-29T04:46:01;2.60;;;2.23;;
12120;SDS011;6124;59.460;17.908;2023-07-29T04:48:30;3.10;;;2.47;;
12120;SDS011;6124;59.460;17.908;2023-07-29T04:50:57;2.70;;;2.07;;
12120;SDS011;6124;59.460;17.908;2023-07-29T04:53:25;2.77;;;2.13;;
12120;SDS011;6124;59.460;17.908;2023-07-29T04:55:52;2.73;;;1.80;;
12120;SDS011;6124;59.460;17.908;2023-07-29T04:58:19;5.87;;;2.40;;
12120;SDS011;6124;59.460;17.908;2023-07-29T05:00:47;2.20;;;2.00;;
12120;SDS011;6124;59.460;17.908;2023-07-29T05:03:14;3.67;;;2.13;;
12120;SDS011;6124;59.460;17.908;2023-07-29T05:05:43;3.27;;;1.90;;
12120;SDS011;6124;59.460;17.908;2023-07-29T05:08:10;2.30;;;2.10;;
12120;SDS011;6124;59.460;17.908;2023-07-29T05:10:38;2.53;;;1.83;;
12120;SDS011;6124;59.460;17.908;2023-07-29T05:13:05;2.27;;;1.70;;
12120;SDS011;6124;59.460;17.908;2023-07-29T05:15:32;2.70;;;2.03;;
12120;SDS011;6124;59.460;17.908;2023-07-29T05:17:59;2.67;;;1.93;;
12120;SDS011;6124;59.460;17.908;2023-07-29T05:20:27;2.30;;;1.70;;
12120;SDS011;6124;59.460;17.908;2023-07-29T05:22:55;3.47;;;2.00;;
12120;SDS011;6124;59.460;17.908;2023-07-29T05:25:23;1.83;;;1.73;;
12120;SDS011;6124;59.460;17.908;2023-07-29T05:27:50;2.83;;;1.70;;
12120;SDS011;6124;59.460;17.908;2023-07-29T05:30:17;2.23;;;1.70;;
12120;SDS011;6124;59.460;17.908;2023-07-29T05:32:45;2.47;;;1.83;;
12120;SDS011;6124;59.460;17.908;2023-07-29T05:35:12;2.40;;;1.67;;
12120;SDS011;6124;59.460;17.908;2023-07-29T05:37:39;1.70;;;1.53;;
12120;SDS011;6124;59.460;17.908;2023-07-29T05:40:08;3.30;;;1.70;;
12120;SDS011;6124;59.460;17.908;2023-07-29T05:42:36;2.97;;;1.97;;
12120;SDS011;6124;59.460;17.908;2023-07-29T05:45:03;2.30;;;1.70;;
12120;SDS011;6124;59.460;17.908;2023-07-29T05:47:31;3.53;;;1.70;;
12120;SDS011;6124;59.460;17.908;2023-07-29T05:49:58;2.40;;;1.87;;
12120;SDS011;6124;59.460;17.908;2023-07-29T05:52:29;2.23;;;1.90;;
12120;SDS011;6124;59.460;17.908;2023-07-29T05:54:56;2.33;;;1.70;;
12120;SDS011;6124;59.460;17.908;2023-07-29T05:57:25;3.40;;;1.63;;
12120;SDS011;6124;59.460;17.908;2023-07-29T05:59:52;2.27;;;1.97;;
12120;SDS011;6124;59.460;17.908;2023-07-29T06:02:20;2.60;;;1.90;;
12120;SDS011;6124;59.460;17.908;2023-07-29T06:04:47;2.17;;;1.70;;
12120;SDS011;6124;59.460;17.908;2023-07-29T06:07:14;1.80;;;1.60;;
12120;SDS011;6124;59.460;17.908;2023-07-29T06:09:41;3.93;;;2.23;;
12120;SDS011;6124;59.460;17.908;2023-07-29T06:12:09;2.63;;;1.90;;
12120;SDS011;6124;59.460;17.908;2023-07-29T06:14:37;2.67;;;1.80;;
12120;SDS011;6124;59.460;17.908;2023-07-29T06:17:05;2.63;;;1.90;;
12120;SDS011;6124;59.460;17.908;2023-07-29T06:19:32;2.80;;;1.93;;
12120;SDS011;6124;59.460;17.908;2023-07-29T06:21:59;1.90;;;1.60;;
12120;SDS011;6124;59.460;17.908;2023-07-29T06:24:27;2.33;;;1.90;;
12120;SDS011;6124;59.460;17.908;2023-07-29T06:26:54;2.27;;;1.70;;
12120;SDS011;6124;59.460;17.908;2023-07-29T06:29:21;2.70;;;1.90;;
12120;SDS011;6124;59.460;17.908;2023-07-29T06:31:50;2.60;;;1.73;;
12120;SDS011;6124;59.460;17.908;2023-07-29T06:34:17;2.27;;;1.70;;
12120;SDS011;6124;59.460;17.908;2023-07-29T06:36:45;2.57;;;2.00;;
12120;SDS011;6124;59.460;17.908;2023-07-29T06:39:12;2.10;;;1.90;;
12120;SDS011;6124;59.460;17.908;2023-07-29T06:41:39;3.40;;;1.90;;
12120;SDS011;6124;59.460;17.908;2023-07-29T06:44:06;5.73;;;2.00;;
12120;SDS011;6124;59.460;17.908;2023-07-29T06:46:34;2.30;;;1.70;;
12120;SDS011;6124;59.460;17.908;2023-07-29T06:49:02;2.87;;;1.87;;
12120;SDS011;6124;59.460;17.908;2023-07-29T06:51:30;3.43;;;2.13;;
12120;SDS011;6124;59.460;17.908;2023-07-29T06:53:59;2.03;;;1.83;;
12120;SDS011;6124;59.460;17.908;2023-07-29T06:56:27;2.33;;;2.10;;
12120;SDS011;6124;59.460;17.908;2023-07-29T06:58:54;3.30;;;2.13;;
12120;SDS011;6124;59.460;17.908;2023-07-29T07:01:21;1.80;;;1.70;;
12120;SDS011;6124;59.460;17.908;2023-07-29T07:03:49;1.83;;;1.70;;
12120;SDS011;6124;59.460;17.908;2023-07-29T07:06:20;2.47;;;2.00;;
12120;SDS011;6124;59.460;17.908;2023-07-29T07:08:49;3.00;;;1.90;;
12120;SDS011;6124;59.460;17.908;2023-07-29T07:11:17;2.97;;;2.07;;
12120;SDS011;6124;59.460;17.908;2023-07-29T07:13:45;2.43;;;1.90;;
12120;SDS011;6124;59.460;17.908;2023-07-29T07:16:12;3.10;;;1.83;;
12120;SDS011;6124;59.460;17.908;2023-07-29T07:18:39;3.93;;;2.20;;
12120;SDS011;6124;59.460;17.908;2023-07-29T07:21:06;2.53;;;1.97;;
12120;SDS011;6124;59.460;17.908;2023-07-29T07:23:35;1.90;;;1.70;;
12120;SDS011;6124;59.460;17.908;2023-07-29T07:26:02;2.00;;;1.80;;
12120;SDS011;6124;59.460;17.908;2023-07-29T07:28:30;2.27;;;1.93;;
12120;SDS011;6124;59.460;17.908;2023-07-29T07:30:57;3.00;;;1.90;;
12120;SDS011;6124;59.460;17.908;2023-07-29T07:33:24;2.20;;;1.97;;
12120;SDS011;6124;59.460;17.908;2023-07-29T07:35:52;3.53;;;2.07;;
12120;SDS011;6124;59.460;17.908;2023-07-29T07:38:19;3.10;;;1.80;;
12120;SDS011;6124;59.460;17.908;2023-07-29T07:40:53;2.87;;;1.80;;
12120;SDS011;6124;59.460;17.908;2023-07-29T07:43:21;2.40;;;2.00;;
12120;SDS011;6124;59.460;17.908;2023-07-29T07:45:48;1.93;;;1.63;;
12120;SDS011;6124;59.460;17.908;2023-07-29T07:48:15;2.43;;;1.90;;
12120;SDS011;6124;59.460;17.908;2023-07-29T07:50:45;1.90;;;1.63;;
12120;SDS011;6124;59.460;17.908;2023-07-29T07:53:12;1.97;;;1.60;;
12120;SDS011;6124;59.460;17.908;2023-07-29T07:55:39;2.47;;;1.70;;
12120;SDS011;6124;59.460;17.908;2023-07-29T07:58:08;2.10;;;1.90;;
12120;SDS011;6124;59.460;17.908;2023-07-29T08:00:35;1.80;;;1.60;;
12120;SDS011;6124;59.460;17.908;2023-07-29T08:03:03;4.50;;;1.80;;
12120;SDS011;6124;59.460;17.908;2023-07-29T08:05:30;2.70;;;1.70;;
12120;SDS011;6124;59.460;17.908;2023-07-29T08:07:58;3.40;;;1.80;;
12120;SDS011;6124;59.460;17.908;2023-07-29T08:10:25;2.00;;;1.80;;
12120;SDS011;6124;59.460;17.908;2023-07-29T08:12:53;1.77;;;1.67;;
12120;SDS011;6124;59.460;17.908;2023-07-29T08:15:21;2.20;;;1.80;;
12120;SDS011;6124;59.460;17.908;2023-07-29T08:17:49;2.17;;;1.70;;
12120;SDS011;6124;59.460;17.908;2023-07-29T08:20:16;2.10;;;1.67;;
12120;SDS011;6124;59.460;17.908;2023-07-29T08:22:43;3.57;;;1.70;;
12120;SDS011;6124;59.460;17.908;2023-07-29T08:25:10;2.00;;;1.80;;
12120;SDS011;6124;59.460;17.908;2023-07-29T08:27:38;3.83;;;1.97;;
12120;SDS011;6124;59.460;17.908;2023-07-29T08:30:06;2.80;;;1.70;;
12120;SDS011;6124;59.460;17.908;2023-07-29T08:32:35;1.70;;;1.60;;
12120;SDS011;6124;59.460;17.908;2023-07-29T08:35:02;3.13;;;1.80;;
12120;SDS011;6124;59.460;17.908;2023-07-29T08:37:30;3.23;;;1.73;;
12120;SDS011;6124;59.460;17.908;2023-07-29T08:39:57;3.00;;;1.97;;
12120;SDS011;6124;59.460;17.908;2023-07-29T08:42:26;3.53;;;1.63;;
12120;SDS011;6124;59.460;17.908;2023-07-29T08:44:54;2.37;;;1.70;;
12120;SDS011;6124;59.460;17.908;2023-07-29T08:47:23;1.97;;;1.60;;
12120;SDS011;6124;59.460;17.908;2023-07-29T08:49:51;3.00;;;1.60;;
12120;SDS011;6124;59.460;17.908;2023-07-29T08:52:19;1.90;;;1.60;;
12120;SDS011;6124;59.460;17.908;2023-07-29T08:54:47;2.03;;;1.77;;
12120;SDS011;6124;59.460;17.908;2023-07-29T08:57:15;1.60;;;1.50;;
12120;SDS011;6124;59.460;17.908;2023-07-29T08:59:42;2.00;;;1.80;;
12120;SDS011;6124;59.460;17.908;2023-07-29T09:02:10;2.73;;;1.70;;
12120;SDS011;6124;59.460;17.908;2023-07-29T09:04:37;2.73;;;1.93;;
12120;SDS011;6124;59.460;17.908;2023-07-29T09:07:06;1.57;;;1.47;;
12120;SDS011;6124;59.460;17.908;2023-07-29T09:09:34;2.07;;;1.60;;
12120;SDS011;6124;59.460;17.908;2023-07-29T09:12:01;2.27;;;1.70;;
12120;SDS011;6124;59.460;17.908;2023-07-29T09:14:28;4.83;;;1.80;;
12120;SDS011;6124;59.460;17.908;2023-07-29T09:16:56;2.50;;;1.57;;
12120;SDS011;6124;59.460;17.908;2023-07-29T09:19:24;1.70;;;1.60;;
12120;SDS011;6124;59.460;17.908;2023-07-29T09:21:52;2.07;;;1.87;;
12120;SDS011;6124;59.460;17.908;2023-07-29T09:24:21;1.80;;;1.60;;
12120;SDS011;6124;59.460;17.908;2023-07-29T09:26:48;1.50;;;1.40;;
12120;SDS011;6124;59.460;17.908;2023-07-29T09:29:16;1.93;;;1.77;;
12120;SDS011;6124;59.460;17.908;2023-07-29T09:31:48;1.83;;;1.67;;
12120;SDS011;6124;59.460;17.908;2023-07-29T09:34:15;1.70;;;1.60;;
12120;SDS011;6124;59.460;17.908;2023-07-29T09:36:43;2.70;;;1.83;;
12120;SDS011;6124;59.460;17.908;2023-07-29T09:39:10;2.00;;;1.63;;
12120;SDS011;6124;59.460;17.908;2023-07-29T09:41:40;1.57;;;1.47;;
12120;SDS011;6124;59.460;17.908;2023-07-29T09:44:07;12.03;;;4.93;;
12120;SDS011;6124;59.460;17.908;2023-07-29T09:46:37;2.10;;;1.50;;
12120;SDS011;6124;59.460;17.908;2023-07-29T09:49:05;1.60;;;1.50;;
12120;SDS011;6124;59.460;17.908;2023-07-29T09:51:36;2.17;;;1.60;;
12120;SDS011;6124;59.460;17.908;2023-07-29T09:54:04;1.83;;;1.53;;
12120;SDS011;6124;59.460;17.908;2023-07-29T09:56:31;2.87;;;1.90;;
12120;SDS011;6124;59.460;17.908;2023-07-29T09:59:00;2.23;;;1.70;;
12120;SDS011;6124;59.460;17.908;2023-07-29T10:01:27;1.70;;;1.60;;
12120;SDS011;6124;59.460;17.908;2023-07-29T10:03:55;1.50;;;1.40;;
12120;SDS011;6124;59.460;17.908;2023-07-29T10:06:25;3.70;;;1.70;;
12120;SDS011;6124;59.460;17.908;2023-07-29T10:08:53;1.70;;;1.50;;
12120;SDS011;6124;59.460;17.908;2023-07-29T10:11:20;2.13;;;1.50;;
12120;SDS011;6124;59.460;17.908;2023-07-29T10:13:48;1.90;;;1.70;;
12120;SDS011;6124;59.460;17.908;2023-07-29T10:16:16;3.00;;;1.50;;
12120;SDS011;6124;59.460;17.908;2023-07-29T10:18:45;2.37;;;1.47;;
12120;SDS011;6124;59.460;17.908;2023-07-29T10:21:12;1.97;;;1.50;;
12120;SDS011;6124;59.460;17.908;2023-07-29T10:23:42;1.53;;;1.40;;
12120;SDS011;6124;59.460;17.908;2023-07-29T10:26:10;1.67;;;1.57;;
12120;SDS011;6124;59.460;17.908;2023-07-29T10:28:39;2.73;;;1.40;;
12120;SDS011;6124;59.460;17.908;2023-07-29T10:31:07;1.77;;;1.53;;
12120;SDS011;6124;59.460;17.908;2023-07-29T10:33:36;2.23;;;1.57;;
12120;SDS011;6124;59.460;17.908;2023-07-29T10:36:04;1.60;;;1.27;;
12120;SDS011;6124;59.460;17.908;2023-07-29T10:38:32;1.63;;;1.30;;
12120;SDS011;6124;59.460;17.908;2023-07-29T10:40:59;2.20;;;1.40;;
12120;SDS011;6124;59.460;17.908;2023-07-29T10:43:27;1.53;;;1.40;;
12120;SDS011;6124;59.460;17.908;2023-07-29T10:45:55;1.57;;;1.40;;
12120;SDS011;6124;59.460;17.908;2023-07-29T10:51:25;2.73;;;1.30;;
12120;SDS011;6124;59.460;17.908;2023-07-29T10:53:54;1.90;;;1.47;;
12120;SDS011;6124;59.460;17.908;2023-07-29T10:56:26;2.23;;;1.50;;
12120;SDS011;6124;59.460;17.908;2023-07-29T10:58:54;1.80;;;1.50;;
12120;SDS011;6124;59.460;17.908;2023-07-29T11:01:29;1.40;;;1.30;;
12120;SDS011;6124;59.460;17.908;2023-07-29T11:09:42;2.07;;;1.50;;
12120;SDS011;6124;59.460;17.908;2023-07-29T11:14:52;1.57;;;1.23;;
12120;SDS011;6124;59.460;17.908;2023-07-29T11:17:19;2.00;;;1.60;;
12120;SDS011;6124;59.460;17.908;2023-07-29T11:19:46;3.07;;;1.60;;
12120;SDS011;6124;59.460;17.908;2023-07-29T11:22:15;3.47;;;1.67;;
12120;SDS011;6124;59.460;17.908;2023-07-29T11:24:44;2.90;;;1.50;;
12120;SDS011;6124;59.460;17.908;2023-07-29T11:27:11;1.83;;;1.73;;
12120;SDS011;6124;59.460;17.908;2023-07-29T11:29:38;1.87;;;1.63;;
12120;SDS011;6124;59.460;17.908;2023-07-29T11:32:06;3.40;;;1.70;;
12120;SDS011;6124;59.460;17.908;2023-07-29T11:34:34;2.33;;;1.60;;
12120;SDS011;6124;59.460;17.908;2023-07-29T11:37:02;1.70;;;1.60;;
12120;SDS011;6124;59.460;17.908;2023-07-29T11:39:31;1.70;;;1.60;;
12120;SDS011;6124;59.460;17.908;2023-07-29T11:42:00;2.27;;;1.87;;
12120;SDS011;6124;59.460;17.908;2023-07-29T11:44:27;2.10;;;1.90;;
12120;SDS011;6124;59.460;17.908;2023-07-29T11:46:54;1.80;;;1.40;;
12120;SDS011;6124;59.460;17.908;2023-07-29T11:49:22;2.27;;;1.80;;
12120;SDS011;6124;59.460;17.908;2023-07-29T11:51:49;2.53;;;1.80;;
12120;SDS011;6124;59.460;17.908;2023-07-29T11:54:16;1.70;;;1.53;;
12120;SDS011;6124;59.460;17.908;2023-07-29T11:56:46;1.70;;;1.60;;
12120;SDS011;6124;59.460;17.908;2023-07-29T11:59:16;1.73;;;1.60;;
12120;SDS011;6124;59.460;17.908;2023-07-29T12:01:43;2.50;;;1.87;;
12120;SDS011;6124;59.460;17.908;2023-07-29T12:04:10;3.27;;;1.70;;
12120;SDS011;6124;59.460;17.908;2023-07-29T12:06:38;1.73;;;1.50;;
12120;SDS011;6124;59.460;17.908;2023-07-29T12:09:06;1.63;;;1.53;;
12120;SDS011;6124;59.460;17.908;2023-07-29T12:11:34;1.57;;;1.47;;
12120;SDS011;6124;59.460;17.908;2023-07-29T12:14:01;3.67;;;1.60;;
12120;SDS011;6124;59.460;17.908;2023-07-29T12:16:30;2.00;;;1.70;;
12120;SDS011;6124;59.460;17.908;2023-07-29T12:19:00;2.60;;;1.63;;
12120;SDS011;6124;59.460;17.908;2023-07-29T12:21:27;1.63;;;1.53;;
12120;SDS011;6124;59.460;17.908;2023-07-29T12:23:56;3.80;;;1.70;;
12120;SDS011;6124;59.460;17.908;2023-07-29T12:26:27;1.60;;;1.50;;
12120;SDS011;6124;59.460;17.908;2023-07-29T12:28:54;2.47;;;1.60;;
12120;SDS011;6124;59.460;17.908;2023-07-29T12:31:23;1.60;;;1.50;;
12120;SDS011;6124;59.460;17.908;2023-07-29T12:33:57;1.90;;;1.30;;
12120;SDS011;6124;59.460;17.908;2023-07-29T12:36:27;1.43;;;1.33;;
12120;SDS011;6124;59.460;17.908;2023-07-29T12:38:58;1.50;;;1.30;;
12120;SDS011;6124;59.460;17.908;2023-07-29T12:41:26;2.93;;;1.60;;
12120;SDS011;6124;59.460;17.908;2023-07-29T12:43:53;1.80;;;1.37;;
12120;SDS011;6124;59.460;17.908;2023-07-29T12:46:20;2.07;;;1.37;;
12120;SDS011;6124;59.460;17.908;2023-07-29T12:48:48;2.00;;;1.33;;
12120;SDS011;6124;59.460;17.908;2023-07-29T12:51:16;1.93;;;1.20;;
12120;SDS011;6124;59.460;17.908;2023-07-29T12:53:44;2.83;;;1.60;;
12120;SDS011;6124;59.460;17.908;2023-07-29T12:56:11;1.30;;;1.20;;
12120;SDS011;6124;59.460;17.908;2023-07-29T12:58:38;2.53;;;1.50;;
12120;SDS011;6124;59.460;17.908;2023-07-29T13:01:05;3.93;;;1.40;;
12120;SDS011;6124;59.460;17.908;2023-07-29T13:03:34;3.03;;;1.40;;
12120;SDS011;6124;59.460;17.908;2023-07-29T13:06:01;1.93;;;1.30;;
12120;SDS011;6124;59.460;17.908;2023-07-29T13:08:31;2.60;;;1.60;;
12120;SDS011;6124;59.460;17.908;2023-07-29T13:10:58;2.60;;;1.30;;
12120;SDS011;6124;59.460;17.908;2023-07-29T13:13:25;1.50;;;1.33;;
12120;SDS011;6124;59.460;17.908;2023-07-29T13:15:52;2.17;;;1.53;;
12120;SDS011;6124;59.460;17.908;2023-07-29T13:18:20;1.60;;;1.20;;
12120;SDS011;6124;59.460;17.908;2023-07-29T13:20:48;1.30;;;1.20;;
12120;SDS011;6124;59.460;17.908;2023-07-29T13:23:15;3.07;;;1.60;;
12120;SDS011;6124;59.460;17.908;2023-07-29T13:25:44;2.03;;;1.40;;
12120;SDS011;6124;59.460;17.908;2023-07-29T13:28:11;1.67;;;1.40;;
12120;SDS011;6124;59.460;17.908;2023-07-29T13:30:39;2.20;;;1.20;;
12120;SDS011;6124;59.460;17.908;2023-07-29T13:33:07;3.00;;;1.20;;
12120;SDS011;6124;59.460;17.908;2023-07-29T13:35:34;1.90;;;1.40;;
12120;SDS011;6124;59.460;17.908;2023-07-29T13:38:02;1.63;;;1.37;;
12120;SDS011;6124;59.460;17.908;2023-07-29T13:40:30;1.83;;;1.50;;
12120;SDS011;6124;59.460;17.908;2023-07-29T13:42:59;1.90;;;1.40;;
12120;SDS011;6124;59.460;17.908;2023-07-29T13:45:27;2.87;;;1.47;;
12120;SDS011;6124;59.460;17.908;2023-07-29T13:47:54;1.40;;;1.30;;
12120;SDS011;6124;59.460;17.908;2023-07-29T13:50:21;1.40;;;1.30;;
12120;SDS011;6124;59.460;17.908;2023-07-29T13:52:48;2.50;;;1.33;;
12120;SDS011;6124;59.460;17.908;2023-07-29T13:55:16;2.03;;;1.60;;
12120;SDS011;6124;59.460;17.908;2023-07-29T13:57:43;1.60;;;1.50;;
12120;SDS011;6124;59.460;17.908;2023-07-29T14:00:12;2.27;;;2.07;;
12120;SDS011;6124;59.460;17.908;2023-07-29T14:02:39;3.43;;;2.20;;
12120;SDS011;6124;59.460;17.908;2023-07-29T14:05:07;1.63;;;1.53;;
12120;SDS011;6124;59.460;17.908;2023-07-29T14:07:36;2.40;;;1.50;;
12120;SDS011;6124;59.460;17.908;2023-07-29T14:10:04;3.57;;;1.80;;
12120;SDS011;6124;59.460;17.908;2023-07-29T14:12:31;2.47;;;1.57;;
12120;SDS011;6124;59.460;17.908;2023-07-29T14:14:59;2.03;;;1.60;;
12120;SDS011;6124;59.460;17.908;2023-07-29T14:17:27;3.30;;;1.40;;
12120;SDS011;6124;59.460;17.908;2023-07-29T14:19:55;3.73;;;1.60;;
12120;SDS011;6124;59.460;17.908;2023-07-29T14:22:22;2.23;;;1.77;;
12120;SDS011;6124;59.460;17.908;2023-07-29T14:24:50;1.50;;;1.40;;
12120;SDS011;6124;59.460;17.908;2023-07-29T14:27:17;1.60;;;1.50;;
12120;SDS011;6124;59.460;17.908;2023-07-29T14:29:44;1.50;;;1.40;;
12120;SDS011;6124;59.460;17.908;2023-07-29T14:32:11;2.70;;;1.50;;
12120;SDS011;6124;59.460;17.908;2023-07-29T14:34:40;1.87;;;1.50;;
12120;SDS011;6124;59.460;17.908;2023-07-29T14:37:07;1.50;;;1.40;;
12120;SDS011;6124;59.460;17.908;2023-07-29T14:39:35;2.27;;;1.47;;
12120;SDS011;6124;59.460;17.908;2023-07-29T14:42:02;1.60;;;1.50;;
12120;SDS011;6124;59.460;17.908;2023-07-29T14:44:30;1.90;;;1.80;;
12120;SDS011;6124;59.460;17.908;2023-07-29T14:46:57;1.53;;;1.43;;
12120;SDS011;6124;59.460;17.908;2023-07-29T14:49:24;2.03;;;1.70;;
12120;SDS011;6124;59.460;17.908;2023-07-29T14:51:53;2.10;;;1.70;;
12120;SDS011;6124;59.460;17.908;2023-07-29T14:54:20;2.33;;;1.90;;
12120;SDS011;6124;59.460;17.908;2023-07-29T14:56:48;2.00;;;1.80;;
12120;SDS011;6124;59.460;17.908;2023-07-29T14:59:15;1.90;;;1.73;;
12120;SDS011;6124;59.460;17.908;2023-07-29T15:01:42;2.30;;;1.90;;
12120;SDS011;6124;59.460;17.908;2023-07-29T15:04:10;2.27;;;1.70;;